sensor_id;sensor_type;location;lat;lon;timestamp;P1;durP1;ratioP1;P2;durP2;ratioP2
70385;SDS011;63206;55.650;37.500;2023-04-03T00:00:55;15.50;;;7.20;;
70385;SDS011;63206;55.650;37.500;2023-04-03T00:03:39;14.60;;;6.85;;
70385;SDS011;63206;55.650;37.500;2023-04-03T00:06:16;15.68;;;6.88;;
70385;SDS011;63206;55.650;37.500;2023-04-03T00:09:00;16.40;;;7.70;;
70385;SDS011;63206;55.650;37.500;2023-04-03T00:11:45;16.60;;;6.63;;
70385;SDS011;63206;55.650;37.500;2023-04-03T00:14:31;14.48;;;6.40;;
70385;SDS011;63206;55.650;37.500;2023-04-03T00:17:03;17.25;;;7.85;;
70385;SDS011;63206;55.650;37.500;2023-04-03T00:19:43;14.15;;;7.55;;
70385;SDS011;63206;55.650;37.500;2023-04-03T00:22:31;16.02;;;6.60;;
70385;SDS011;63206;55.650;37.500;2023-04-03T00:25:15;15.57;;;6.60;;
70385;SDS011;63206;55.650;37.500;2023-04-03T00:27:52;13.57;;;7.03;;
70385;SDS011;63206;55.650;37.500;2023-04-03T00:30:39;15.00;;;7.15;;
70385;SDS011;63206;55.650;37.500;2023-04-03T00:35:54;15.02;;;7.10;;
70385;SDS011;63206;55.650;37.500;2023-04-03T00:38:41;15.18;;;6.70;;
70385;SDS011;63206;55.650;37.500;2023-04-03T00:41:27;14.68;;;7.50;;
70385;SDS011;63206;55.650;37.500;2023-04-03T00:46:54;17.27;;;8.18;;
70385;SDS011;63206;55.650;37.500;2023-04-03T00:49:26;18.13;;;7.38;;
70385;SDS011;63206;55.650;37.500;2023-04-03T00:52:16;14.02;;;7.50;;
70385;SDS011;63206;55.650;37.500;2023-04-03T00:54:57;18.48;;;7.80;;
70385;SDS011;63206;55.650;37.500;2023-04-03T00:57:44;16.08;;;7.63;;
70385;SDS011;63206;55.650;37.500;2023-04-03T01:00:32;14.77;;;7.60;;
70385;SDS011;63206;55.650;37.500;2023-04-03T01:03:11;16.25;;;7.65;;
70385;SDS011;63206;55.650;37.500;2023-04-03T01:05:47;19.38;;;7.82;;
70385;SDS011;63206;55.650;37.500;2023-04-03T01:08:25;19.63;;;7.53;;
70385;SDS011;63206;55.650;37.500;2023-04-03T01:11:05;17.70;;;8.85;;
70385;SDS011;63206;55.650;37.500;2023-04-03T01:13:43;17.83;;;8.77;;
70385;SDS011;63206;55.650;37.500;2023-04-03T01:16:18;18.63;;;8.50;;
70385;SDS011;63206;55.650;37.500;2023-04-03T01:18:55;15.07;;;8.48;;
70385;SDS011;63206;55.650;37.500;2023-04-03T01:24:20;18.85;;;8.50;;
70385;SDS011;63206;55.650;37.500;2023-04-03T01:27:00;16.90;;;9.00;;
70385;SDS011;63206;55.650;37.500;2023-04-03T01:29:41;18.10;;;8.50;;
70385;SDS011;63206;55.650;37.500;2023-04-03T01:32:14;19.20;;;9.35;;
70385;SDS011;63206;55.650;37.500;2023-04-03T01:34:52;15.93;;;8.20;;
70385;SDS011;63206;55.650;37.500;2023-04-03T01:37:32;16.65;;;7.55;;
70385;SDS011;63206;55.650;37.500;2023-04-03T01:42:37;14.48;;;7.63;;
70385;SDS011;63206;55.650;37.500;2023-04-03T01:50:28;15.82;;;8.05;;
70385;SDS011;63206;55.650;37.500;2023-04-03T01:53:02;16.52;;;7.88;;
70385;SDS011;63206;55.650;37.500;2023-04-03T01:55:48;15.45;;;8.18;;
70385;SDS011;63206;55.650;37.500;2023-04-03T01:58:35;15.73;;;8.02;;
70385;SDS011;63206;55.650;37.500;2023-04-03T02:01:13;17.35;;;7.80;;
70385;SDS011;63206;55.650;37.500;2023-04-03T02:03:41;17.45;;;8.45;;
70385;SDS011;63206;55.650;37.500;2023-04-03T02:06:25;16.80;;;8.45;;
70385;SDS011;63206;55.650;37.500;2023-04-03T02:09:06;17.65;;;9.27;;
70385;SDS011;63206;55.650;37.500;2023-04-03T02:11:50;19.13;;;8.60;;
70385;SDS011;63206;55.650;37.500;2023-04-03T02:14:30;20.63;;;8.70;;
70385;SDS011;63206;55.650;37.500;2023-04-03T02:17:17;16.85;;;9.10;;
70385;SDS011;63206;55.650;37.500;2023-04-03T02:19:56;18.77;;;9.88;;
70385;SDS011;63206;55.650;37.500;2023-04-03T02:22:30;16.67;;;8.65;;
70385;SDS011;63206;55.650;37.500;2023-04-03T02:25:14;17.08;;;8.93;;
70385;SDS011;63206;55.650;37.500;2023-04-03T02:27:52;17.25;;;9.38;;
70385;SDS011;63206;55.650;37.500;2023-04-03T02:30:29;16.90;;;9.32;;
70385;SDS011;63206;55.650;37.500;2023-04-03T02:33:11;18.88;;;8.57;;
70385;SDS011;63206;55.650;37.500;2023-04-03T02:35:41;18.10;;;9.00;;
70385;SDS011;63206;55.650;37.500;2023-04-03T02:38:28;18.17;;;9.40;;
70385;SDS011;63206;55.650;37.500;2023-04-03T02:41:14;19.20;;;9.75;;
70385;SDS011;63206;55.650;37.500;2023-04-03T02:43:48;18.52;;;9.30;;
70385;SDS011;63206;55.650;37.500;2023-04-03T02:46:34;21.48;;;9.80;;
70385;SDS011;63206;55.650;37.500;2023-04-03T02:49:18;32.55;;;14.43;;
70385;SDS011;63206;55.650;37.500;2023-04-03T02:51:55;21.52;;;10.23;;
70385;SDS011;63206;55.650;37.500;2023-04-03T02:54:42;18.70;;;9.60;;
70385;SDS011;63206;55.650;37.500;2023-04-03T02:57:29;21.95;;;10.23;;
70385;SDS011;63206;55.650;37.500;2023-04-03T03:00:09;19.73;;;10.07;;
70385;SDS011;63206;55.650;37.500;2023-04-03T03:02:53;20.35;;;9.45;;
70385;SDS011;63206;55.650;37.500;2023-04-03T03:05:33;19.20;;;9.75;;
70385;SDS011;63206;55.650;37.500;2023-04-03T03:08:13;21.63;;;9.85;;
70385;SDS011;63206;55.650;37.500;2023-04-03T03:10:47;21.70;;;9.65;;
70385;SDS011;63206;55.650;37.500;2023-04-03T03:13:27;17.15;;;9.25;;
70385;SDS011;63206;55.650;37.500;2023-04-03T03:16:14;21.60;;;10.10;;
70385;SDS011;63206;55.650;37.500;2023-04-03T03:19:01;19.30;;;9.65;;
70385;SDS011;63206;55.650;37.500;2023-04-03T03:21:46;20.98;;;10.15;;
70385;SDS011;63206;55.650;37.500;2023-04-03T03:24:33;19.13;;;8.77;;
70385;SDS011;63206;55.650;37.500;2023-04-03T03:27:17;24.73;;;9.73;;
70385;SDS011;63206;55.650;37.500;2023-04-03T03:32:26;23.02;;;9.48;;
70385;SDS011;63206;55.650;37.500;2023-04-03T03:35:12;20.00;;;9.73;;
70385;SDS011;63206;55.650;37.500;2023-04-03T03:37:56;17.98;;;9.55;;
70385;SDS011;63206;55.650;37.500;2023-04-03T03:40:51;19.27;;;9.88;;
70385;SDS011;63206;55.650;37.500;2023-04-03T03:43:30;21.60;;;9.90;;
70385;SDS011;63206;55.650;37.500;2023-04-03T03:46:18;23.73;;;10.43;;
70385;SDS011;63206;55.650;37.500;2023-04-03T03:48:56;19.50;;;9.52;;
70385;SDS011;63206;55.650;37.500;2023-04-03T03:51:45;23.17;;;10.98;;
70385;SDS011;63206;55.650;37.500;2023-04-03T03:54:38;23.35;;;10.23;;
70385;SDS011;63206;55.650;37.500;2023-04-03T03:57:27;26.95;;;10.35;;
70385;SDS011;63206;55.650;37.500;2023-04-03T04:00:05;21.63;;;10.30;;
70385;SDS011;63206;55.650;37.500;2023-04-03T04:02:50;22.52;;;10.10;;
70385;SDS011;63206;55.650;37.500;2023-04-03T04:05:39;21.65;;;10.38;;
70385;SDS011;63206;55.650;37.500;2023-04-03T04:08:20;23.55;;;10.80;;
70385;SDS011;63206;55.650;37.500;2023-04-03T04:10:50;23.67;;;12.00;;
70385;SDS011;63206;55.650;37.500;2023-04-03T04:13:45;22.02;;;10.43;;
70385;SDS011;63206;55.650;37.500;2023-04-03T04:16:18;23.33;;;10.55;;
70385;SDS011;63206;55.650;37.500;2023-04-03T04:18:56;23.40;;;11.48;;
70385;SDS011;63206;55.650;37.500;2023-04-03T04:21:42;20.83;;;10.50;;
70385;SDS011;63206;55.650;37.500;2023-04-03T04:24:20;22.52;;;11.23;;
70385;SDS011;63206;55.650;37.500;2023-04-03T04:27:01;23.77;;;11.70;;
70385;SDS011;63206;55.650;37.500;2023-04-03T04:29:39;23.45;;;11.90;;
70385;SDS011;63206;55.650;37.500;2023-04-03T04:32:17;24.15;;;11.63;;
70385;SDS011;63206;55.650;37.500;2023-04-03T04:35:05;24.33;;;11.60;;
70385;SDS011;63206;55.650;37.500;2023-04-03T04:37:48;21.23;;;10.68;;
70385;SDS011;63206;55.650;37.500;2023-04-03T04:40:35;22.00;;;11.13;;
70385;SDS011;63206;55.650;37.500;2023-04-03T04:43:13;22.40;;;10.55;;
70385;SDS011;63206;55.650;37.500;2023-04-03T04:48:52;21.65;;;10.38;;
70385;SDS011;63206;55.650;37.500;2023-04-03T04:51:29;22.95;;;10.65;;
70385;SDS011;63206;55.650;37.500;2023-04-03T04:56:50;23.70;;;10.90;;
70385;SDS011;63206;55.650;37.500;2023-04-03T04:59:30;23.45;;;10.57;;
70385;SDS011;63206;55.650;37.500;2023-04-03T05:02:25;24.85;;;11.68;;
70385;SDS011;63206;55.650;37.500;2023-04-03T05:05:06;20.73;;;10.55;;
70385;SDS011;63206;55.650;37.500;2023-04-03T05:07:47;20.90;;;11.05;;
70385;SDS011;63206;55.650;37.500;2023-04-03T05:10:22;24.55;;;11.50;;
70385;SDS011;63206;55.650;37.500;2023-04-03T05:13:08;23.90;;;11.57;;
70385;SDS011;63206;55.650;37.500;2023-04-03T05:15:49;22.65;;;10.85;;
70385;SDS011;63206;55.650;37.500;2023-04-03T05:18:37;22.35;;;11.43;;
70385;SDS011;63206;55.650;37.500;2023-04-03T05:21:20;23.98;;;11.27;;
70385;SDS011;63206;55.650;37.500;2023-04-03T05:24:13;23.38;;;11.38;;
70385;SDS011;63206;55.650;37.500;2023-04-03T05:27:00;25.08;;;11.60;;
70385;SDS011;63206;55.650;37.500;2023-04-03T05:29:32;21.85;;;11.10;;
70385;SDS011;63206;55.650;37.500;2023-04-03T05:32:13;23.45;;;11.20;;
70385;SDS011;63206;55.650;37.500;2023-04-03T05:35:04;24.08;;;10.80;;
70385;SDS011;63206;55.650;37.500;2023-04-03T05:37:42;21.55;;;12.10;;
70385;SDS011;63206;55.650;37.500;2023-04-03T05:40:20;24.88;;;11.57;;
70385;SDS011;63206;55.650;37.500;2023-04-03T05:42:56;24.52;;;11.10;;
70385;SDS011;63206;55.650;37.500;2023-04-03T05:45:37;24.27;;;10.85;;
70385;SDS011;63206;55.650;37.500;2023-04-03T05:48:10;22.35;;;10.77;;
70385;SDS011;63206;55.650;37.500;2023-04-03T05:50:58;21.23;;;10.77;;
70385;SDS011;63206;55.650;37.500;2023-04-03T05:53:45;22.38;;;11.15;;
70385;SDS011;63206;55.650;37.500;2023-04-03T05:56:26;22.27;;;11.80;;
70385;SDS011;63206;55.650;37.500;2023-04-03T05:59:10;22.27;;;11.55;;
70385;SDS011;63206;55.650;37.500;2023-04-03T06:01:51;24.23;;;11.10;;
70385;SDS011;63206;55.650;37.500;2023-04-03T06:04:24;23.77;;;11.40;;
70385;SDS011;63206;55.650;37.500;2023-04-03T06:07:04;24.75;;;11.18;;
70385;SDS011;63206;55.650;37.500;2023-04-03T06:09:44;25.02;;;11.75;;
70385;SDS011;63206;55.650;37.500;2023-04-03T06:12:29;25.05;;;11.88;;
70385;SDS011;63206;55.650;37.500;2023-04-03T06:15:05;25.55;;;10.88;;
70385;SDS011;63206;55.650;37.500;2023-04-03T06:17:49;25.60;;;11.70;;
70385;SDS011;63206;55.650;37.500;2023-04-03T06:20:36;24.08;;;11.95;;
70385;SDS011;63206;55.650;37.500;2023-04-03T06:23:16;25.05;;;11.85;;
70385;SDS011;63206;55.650;37.500;2023-04-03T06:26:02;25.60;;;11.55;;
70385;SDS011;63206;55.650;37.500;2023-04-03T06:28:33;24.15;;;11.43;;
70385;SDS011;63206;55.650;37.500;2023-04-03T06:31:17;22.48;;;10.75;;
70385;SDS011;63206;55.650;37.500;2023-04-03T06:33:55;27.77;;;11.80;;
70385;SDS011;63206;55.650;37.500;2023-04-03T06:36:42;25.60;;;11.38;;
70385;SDS011;63206;55.650;37.500;2023-04-03T06:39:13;25.27;;;11.50;;
70385;SDS011;63206;55.650;37.500;2023-04-03T06:42:00;29.23;;;12.73;;
70385;SDS011;63206;55.650;37.500;2023-04-03T06:44:39;27.75;;;11.60;;
70385;SDS011;63206;55.650;37.500;2023-04-03T06:47:25;23.63;;;11.18;;
70385;SDS011;63206;55.650;37.500;2023-04-03T06:50:00;22.75;;;11.70;;
70385;SDS011;63206;55.650;37.500;2023-04-03T06:52:44;24.80;;;11.43;;
70385;SDS011;63206;55.650;37.500;2023-04-03T06:58:07;22.88;;;10.40;;
70385;SDS011;63206;55.650;37.500;2023-04-03T07:00:54;28.65;;;12.30;;
70385;SDS011;63206;55.650;37.500;2023-04-03T07:03:23;23.02;;;11.73;;
70385;SDS011;63206;55.650;37.500;2023-04-03T07:06:04;25.60;;;11.68;;
70385;SDS011;63206;55.650;37.500;2023-04-03T07:08:51;24.15;;;11.55;;
70385;SDS011;63206;55.650;37.500;2023-04-03T07:11:20;24.35;;;12.35;;
70385;SDS011;63206;55.650;37.500;2023-04-03T07:14:00;21.58;;;11.32;;
70385;SDS011;63206;55.650;37.500;2023-04-03T07:16:46;20.60;;;11.75;;
70385;SDS011;63206;55.650;37.500;2023-04-03T07:19:17;30.05;;;11.27;;
70385;SDS011;63206;55.650;37.500;2023-04-03T07:21:56;33.17;;;11.82;;
70385;SDS011;63206;55.650;37.500;2023-04-03T07:24:36;58.70;;;15.57;;
70385;SDS011;63206;55.650;37.500;2023-04-03T07:27:23;24.63;;;10.30;;
70385;SDS011;63206;55.650;37.500;2023-04-03T07:30:03;22.20;;;10.10;;
70385;SDS011;63206;55.650;37.500;2023-04-03T07:32:34;20.05;;;10.02;;
70385;SDS011;63206;55.650;37.500;2023-04-03T07:35:08;22.33;;;10.10;;
70385;SDS011;63206;55.650;37.500;2023-04-03T07:37:48;23.23;;;8.93;;
70385;SDS011;63206;55.650;37.500;2023-04-03T07:40:25;21.02;;;10.23;;
70385;SDS011;63206;55.650;37.500;2023-04-03T07:43:06;20.15;;;9.20;;
70385;SDS011;63206;55.650;37.500;2023-04-03T07:45:45;18.88;;;9.52;;
70385;SDS011;63206;55.650;37.500;2023-04-03T07:48:32;20.63;;;8.15;;
70385;SDS011;63206;55.650;37.500;2023-04-03T07:51:10;19.63;;;8.43;;
70385;SDS011;63206;55.650;37.500;2023-04-03T07:53:49;18.52;;;9.18;;
70385;SDS011;63206;55.650;37.500;2023-04-03T07:56:35;19.27;;;8.60;;
70385;SDS011;63206;55.650;37.500;2023-04-03T07:59:22;16.48;;;7.90;;
70385;SDS011;63206;55.650;37.500;2023-04-03T08:02:08;20.35;;;9.43;;
70385;SDS011;63206;55.650;37.500;2023-04-03T08:04:55;18.98;;;9.30;;
70385;SDS011;63206;55.650;37.500;2023-04-03T08:07:34;20.38;;;8.70;;
70385;SDS011;63206;55.650;37.500;2023-04-03T08:10:18;19.50;;;9.52;;
70385;SDS011;63206;55.650;37.500;2023-04-03T08:13:04;20.83;;;9.85;;
70385;SDS011;63206;55.650;37.500;2023-04-03T08:15:45;21.52;;;9.90;;
70385;SDS011;63206;55.650;37.500;2023-04-03T08:18:20;22.08;;;11.07;;
70385;SDS011;63206;55.650;37.500;2023-04-03T08:21:05;22.13;;;10.52;;
70385;SDS011;63206;55.650;37.500;2023-04-03T08:23:43;23.65;;;11.75;;
70385;SDS011;63206;55.650;37.500;2023-04-03T08:26:13;23.75;;;12.15;;
70385;SDS011;63206;55.650;37.500;2023-04-03T08:29:00;23.92;;;12.25;;
70385;SDS011;63206;55.650;37.500;2023-04-03T08:31:38;38.33;;;14.07;;
70385;SDS011;63206;55.650;37.500;2023-04-03T08:34:22;27.05;;;12.02;;
70385;SDS011;63206;55.650;37.500;2023-04-03T08:37:09;30.65;;;13.38;;
70385;SDS011;63206;55.650;37.500;2023-04-03T08:39:43;35.80;;;12.70;;
70385;SDS011;63206;55.650;37.500;2023-04-03T08:42:32;23.55;;;13.05;;
70385;SDS011;63206;55.650;37.500;2023-04-03T08:45:18;27.80;;;11.80;;
70385;SDS011;63206;55.650;37.500;2023-04-03T08:50:36;27.35;;;12.60;;
70385;SDS011;63206;55.650;37.500;2023-04-03T08:53:22;27.52;;;11.98;;
70385;SDS011;63206;55.650;37.500;2023-04-03T08:56:08;23.42;;;11.43;;
70385;SDS011;63206;55.650;37.500;2023-04-03T08:58:59;28.33;;;12.10;;
70385;SDS011;63206;55.650;37.500;2023-04-03T09:01:46;24.75;;;11.95;;
70385;SDS011;63206;55.650;37.500;2023-04-03T09:04:33;30.25;;;12.93;;
70385;SDS011;63206;55.650;37.500;2023-04-03T09:07:10;27.15;;;12.65;;
70385;SDS011;63206;55.650;37.500;2023-04-03T09:09:59;31.85;;;13.90;;
70385;SDS011;63206;55.650;37.500;2023-04-03T09:12:51;30.08;;;14.38;;
70385;SDS011;63206;55.650;37.500;2023-04-03T09:15:24;32.05;;;13.10;;
70385;SDS011;63206;55.650;37.500;2023-04-03T09:23:58;26.85;;;13.60;;
70385;SDS011;63206;55.650;37.500;2023-04-03T09:26:48;26.20;;;13.63;;
70385;SDS011;63206;55.650;37.500;2023-04-03T09:29:31;25.98;;;13.70;;
70385;SDS011;63206;55.650;37.500;2023-04-03T09:32:11;29.42;;;14.35;;
70385;SDS011;63206;55.650;37.500;2023-04-03T09:35:25;27.10;;;13.20;;
70385;SDS011;63206;55.650;37.500;2023-04-03T09:41:06;28.08;;;13.65;;
70385;SDS011;63206;55.650;37.500;2023-04-03T09:43:52;26.13;;;12.85;;
70385;SDS011;63206;55.650;37.500;2023-04-03T09:46:31;25.23;;;12.90;;
70385;SDS011;63206;55.650;37.500;2023-04-03T09:49:08;28.58;;;13.27;;
70385;SDS011;63206;55.650;37.500;2023-04-03T09:51:47;26.08;;;12.52;;
70385;SDS011;63206;55.650;37.500;2023-04-03T09:57:15;20.00;;;10.23;;
70385;SDS011;63206;55.650;37.500;2023-04-03T09:59:47;24.63;;;11.05;;
70385;SDS011;63206;55.650;37.500;2023-04-03T10:02:36;21.30;;;10.73;;
70385;SDS011;63206;55.650;37.500;2023-04-03T10:08:34;24.15;;;12.63;;
70385;SDS011;63206;55.650;37.500;2023-04-03T10:11:07;26.77;;;12.23;;
70385;SDS011;63206;55.650;37.500;2023-04-03T10:13:54;22.48;;;11.60;;
70385;SDS011;63206;55.650;37.500;2023-04-03T10:16:34;28.63;;;12.98;;
70385;SDS011;63206;55.650;37.500;2023-04-03T10:22:20;24.13;;;12.00;;
70385;SDS011;63206;55.650;37.500;2023-04-03T10:25:12;58.47;;;15.90;;
70385;SDS011;63206;55.650;37.500;2023-04-03T10:27:59;52.70;;;14.20;;
70385;SDS011;63206;55.650;37.500;2023-04-03T10:47:20;28.45;;;13.77;;
70385;SDS011;63206;55.650;37.500;2023-04-03T10:50:11;36.72;;;13.00;;
70385;SDS011;63206;55.650;37.500;2023-04-03T10:52:47;22.42;;;11.20;;
70385;SDS011;63206;55.650;37.500;2023-04-03T10:58:05;28.30;;;12.82;;
70385;SDS011;63206;55.650;37.500;2023-04-03T11:00:47;29.48;;;13.48;;
70385;SDS011;63206;55.650;37.500;2023-04-03T11:03:29;26.73;;;13.98;;
70385;SDS011;63206;55.650;37.500;2023-04-03T11:06:07;29.52;;;13.93;;
70385;SDS011;63206;55.650;37.500;2023-04-03T11:08:43;29.13;;;14.27;;
70385;SDS011;63206;55.650;37.500;2023-04-03T11:11:25;27.95;;;13.00;;
70385;SDS011;63206;55.650;37.500;2023-04-03T11:14:27;27.35;;;12.35;;
70385;SDS011;63206;55.650;37.500;2023-04-03T11:22:32;24.65;;;11.43;;
70385;SDS011;63206;55.650;37.500;2023-04-03T11:25:23;24.92;;;11.80;;
70385;SDS011;63206;55.650;37.500;2023-04-03T11:28:11;29.30;;;12.48;;
70385;SDS011;63206;55.650;37.500;2023-04-03T11:31:06;22.95;;;11.38;;
70385;SDS011;63206;55.650;37.500;2023-04-03T11:36:47;28.95;;;11.93;;
70385;SDS011;63206;55.650;37.500;2023-04-03T11:39:22;27.15;;;11.25;;
70385;SDS011;63206;55.650;37.500;2023-04-03T11:44:43;19.42;;;9.88;;
70385;SDS011;63206;55.650;37.500;2023-04-03T11:55:58;19.83;;;10.23;;
70385;SDS011;63206;55.650;37.500;2023-04-03T11:58:35;24.02;;;10.77;;
70385;SDS011;63206;55.650;37.500;2023-04-03T12:01:16;23.23;;;10.63;;
70385;SDS011;63206;55.650;37.500;2023-04-03T12:04:06;21.20;;;10.70;;
70385;SDS011;63206;55.650;37.500;2023-04-03T12:06:51;22.08;;;11.02;;
70385;SDS011;63206;55.650;37.500;2023-04-03T12:12:33;20.67;;;11.18;;
70385;SDS011;63206;55.650;37.500;2023-04-03T12:15:52;24.67;;;10.57;;
70385;SDS011;63206;55.650;37.500;2023-04-03T12:20:54;24.10;;;10.80;;
70385;SDS011;63206;55.650;37.500;2023-04-03T12:23:27;21.13;;;10.27;;
70385;SDS011;63206;55.650;37.500;2023-04-03T12:26:20;21.02;;;9.95;;
70385;SDS011;63206;55.650;37.500;2023-04-03T12:29:14;21.55;;;9.65;;
70385;SDS011;63206;55.650;37.500;2023-04-03T12:34:50;25.08;;;9.70;;
70385;SDS011;63206;55.650;37.500;2023-04-03T12:37:39;17.85;;;8.65;;
70385;SDS011;63206;55.650;37.500;2023-04-03T12:40:57;16.63;;;9.15;;
70385;SDS011;63206;55.650;37.500;2023-04-03T12:43:34;18.25;;;9.60;;
70385;SDS011;63206;55.650;37.500;2023-04-03T12:46:24;16.83;;;7.93;;
70385;SDS011;63206;55.650;37.500;2023-04-03T12:49:01;16.95;;;7.88;;
70385;SDS011;63206;55.650;37.500;2023-04-03T12:51:42;15.55;;;8.60;;
70385;SDS011;63206;55.650;37.500;2023-04-03T12:54:37;14.25;;;7.88;;
70385;SDS011;63206;55.650;37.500;2023-04-03T13:00:20;16.10;;;8.18;;
70385;SDS011;63206;55.650;37.500;2023-04-03T13:03:00;16.98;;;7.85;;
70385;SDS011;63206;55.650;37.500;2023-04-03T13:05:47;15.15;;;7.22;;
70385;SDS011;63206;55.650;37.500;2023-04-03T13:08:21;13.50;;;6.70;;
70385;SDS011;63206;55.650;37.500;2023-04-03T13:11:11;18.48;;;7.05;;
70385;SDS011;63206;55.650;37.500;2023-04-03T13:16:24;14.73;;;6.95;;
70385;SDS011;63206;55.650;37.500;2023-04-03T13:19:17;14.68;;;7.03;;
70385;SDS011;63206;55.650;37.500;2023-04-03T13:21:53;14.18;;;7.18;;
70385;SDS011;63206;55.650;37.500;2023-04-03T13:24:37;15.25;;;7.07;;
70385;SDS011;63206;55.650;37.500;2023-04-03T13:27:18;24.95;;;7.60;;
70385;SDS011;63206;55.650;37.500;2023-04-03T13:29:53;17.45;;;7.45;;
70385;SDS011;63206;55.650;37.500;2023-04-03T13:32:28;16.02;;;7.57;;
70385;SDS011;63206;55.650;37.500;2023-04-03T13:35:29;15.50;;;7.10;;
70385;SDS011;63206;55.650;37.500;2023-04-03T13:40:58;17.30;;;6.90;;
70385;SDS011;63206;55.650;37.500;2023-04-03T13:43:39;12.88;;;6.82;;
70385;SDS011;63206;55.650;37.500;2023-04-03T13:46:29;14.07;;;6.88;;
70385;SDS011;63206;55.650;37.500;2023-04-03T13:54:59;14.02;;;6.57;;
70385;SDS011;63206;55.650;37.500;2023-04-03T13:57:30;14.77;;;6.30;;
70385;SDS011;63206;55.650;37.500;2023-04-03T14:00:18;12.07;;;6.32;;
70385;SDS011;63206;55.650;37.500;2023-04-03T14:02:56;14.48;;;6.40;;
70385;SDS011;63206;55.650;37.500;2023-04-03T14:05:27;12.75;;;6.80;;
70385;SDS011;63206;55.650;37.500;2023-04-03T14:07:59;13.18;;;7.20;;
70385;SDS011;63206;55.650;37.500;2023-04-03T14:10:30;17.25;;;7.47;;
70385;SDS011;63206;55.650;37.500;2023-04-03T14:13:08;22.23;;;7.60;;
70385;SDS011;63206;55.650;37.500;2023-04-03T14:15:41;15.43;;;7.75;;
70385;SDS011;63206;55.650;37.500;2023-04-03T14:18:13;16.20;;;7.30;;
70385;SDS011;63206;55.650;37.500;2023-04-03T14:20:45;16.58;;;7.40;;
70385;SDS011;63206;55.650;37.500;2023-04-03T14:23:19;15.02;;;6.97;;
70385;SDS011;63206;55.650;37.500;2023-04-03T14:25:53;15.55;;;7.07;;
70385;SDS011;63206;55.650;37.500;2023-04-03T14:28:31;15.52;;;6.97;;
70385;SDS011;63206;55.650;37.500;2023-04-03T14:31:10;15.38;;;6.68;;
70385;SDS011;63206;55.650;37.500;2023-04-03T14:33:51;16.20;;;6.88;;
70385;SDS011;63206;55.650;37.500;2023-04-03T14:36:31;17.83;;;7.63;;
70385;SDS011;63206;55.650;37.500;2023-04-03T14:39:06;14.90;;;7.28;;
70385;SDS011;63206;55.650;37.500;2023-04-03T14:41:41;15.65;;;7.50;;
70385;SDS011;63206;55.650;37.500;2023-04-03T14:44:21;19.40;;;8.23;;
70385;SDS011;63206;55.650;37.500;2023-04-03T14:46:56;15.48;;;7.45;;
70385;SDS011;63206;55.650;37.500;2023-04-03T14:49:28;16.30;;;6.97;;
70385;SDS011;63206;55.650;37.500;2023-04-03T14:52:02;15.45;;;7.45;;
70385;SDS011;63206;55.650;37.500;2023-04-03T14:54:42;19.13;;;7.15;;
70385;SDS011;63206;55.650;37.500;2023-04-03T14:57:20;16.25;;;7.05;;
70385;SDS011;63206;55.650;37.500;2023-04-03T15:00:03;16.42;;;7.63;;
70385;SDS011;63206;55.650;37.500;2023-04-03T15:02:35;16.65;;;7.40;;
70385;SDS011;63206;55.650;37.500;2023-04-03T15:05:10;18.60;;;7.50;;
70385;SDS011;63206;55.650;37.500;2023-04-03T15:07:50;17.05;;;8.02;;
70385;SDS011;63206;55.650;37.500;2023-04-03T15:10:26;17.35;;;7.32;;
70385;SDS011;63206;55.650;37.500;2023-04-03T15:13:13;19.85;;;8.48;;
70385;SDS011;63206;55.650;37.500;2023-04-03T15:15:57;18.02;;;8.30;;
70385;SDS011;63206;55.650;37.500;2023-04-03T15:18:37;18.35;;;7.75;;
70385;SDS011;63206;55.650;37.500;2023-04-03T15:21:15;15.27;;;7.35;;
70385;SDS011;63206;55.650;37.500;2023-04-03T15:23:53;18.52;;;7.20;;
70385;SDS011;63206;55.650;37.500;2023-04-03T15:29:09;19.33;;;8.07;;
70385;SDS011;63206;55.650;37.500;2023-04-03T15:31:49;20.33;;;7.90;;
70385;SDS011;63206;55.650;37.500;2023-04-03T15:34:22;15.48;;;7.32;;
70385;SDS011;63206;55.650;37.500;2023-04-03T15:37:00;20.42;;;8.63;;
70385;SDS011;63206;55.650;37.500;2023-04-03T15:39:41;19.58;;;8.35;;
70385;SDS011;63206;55.650;37.500;2023-04-03T15:42:18;15.52;;;7.53;;
70385;SDS011;63206;55.650;37.500;2023-04-03T15:44:49;18.40;;;7.50;;
70385;SDS011;63206;55.650;37.500;2023-04-03T15:47:20;20.23;;;7.60;;
70385;SDS011;63206;55.650;37.500;2023-04-03T15:49:52;15.02;;;7.22;;
70385;SDS011;63206;55.650;37.500;2023-04-03T15:52:23;16.80;;;7.40;;
70385;SDS011;63206;55.650;37.500;2023-04-03T15:55:03;18.65;;;7.93;;
70385;SDS011;63206;55.650;37.500;2023-04-03T15:57:35;19.40;;;8.60;;
70385;SDS011;63206;55.650;37.500;2023-04-03T16:00:06;16.58;;;7.72;;
70385;SDS011;63206;55.650;37.500;2023-04-03T16:02:35;17.83;;;7.45;;
70385;SDS011;63206;55.650;37.500;2023-04-03T16:05:06;18.10;;;8.15;;
70385;SDS011;63206;55.650;37.500;2023-04-03T16:07:37;15.50;;;7.43;;
70385;SDS011;63206;55.650;37.500;2023-04-03T16:10:09;21.15;;;8.55;;
70385;SDS011;63206;55.650;37.500;2023-04-03T16:12:40;22.58;;;8.60;;
70385;SDS011;63206;55.650;37.500;2023-04-03T16:15:12;18.45;;;7.40;;
70385;SDS011;63206;55.650;37.500;2023-04-03T16:20:21;17.77;;;7.55;;
70385;SDS011;63206;55.650;37.500;2023-04-03T16:22:59;19.40;;;8.05;;
70385;SDS011;63206;55.650;37.500;2023-04-03T16:25:31;19.30;;;8.35;;
70385;SDS011;63206;55.650;37.500;2023-04-03T16:28:15;21.10;;;8.68;;
70385;SDS011;63206;55.650;37.500;2023-04-03T16:30:48;21.55;;;9.00;;
70385;SDS011;63206;55.650;37.500;2023-04-03T16:33:19;19.80;;;7.50;;
70385;SDS011;63206;55.650;37.500;2023-04-03T16:35:58;16.48;;;7.78;;
70385;SDS011;63206;55.650;37.500;2023-04-03T16:38:32;23.45;;;7.88;;
70385;SDS011;63206;55.650;37.500;2023-04-03T16:41:19;15.23;;;8.15;;
70385;SDS011;63206;55.650;37.500;2023-04-03T16:43:48;17.15;;;8.13;;
70385;SDS011;63206;55.650;37.500;2023-04-03T16:46:24;15.02;;;8.00;;
70385;SDS011;63206;55.650;37.500;2023-04-03T16:48:55;22.27;;;8.73;;
70385;SDS011;63206;55.650;37.500;2023-04-03T16:51:41;18.73;;;7.63;;
70385;SDS011;63206;55.650;37.500;2023-04-03T16:54:16;18.30;;;8.05;;
70385;SDS011;63206;55.650;37.500;2023-04-03T16:56:53;20.20;;;8.57;;
70385;SDS011;63206;55.650;37.500;2023-04-03T16:59:24;19.95;;;8.43;;
70385;SDS011;63206;55.650;37.500;2023-04-03T17:01:55;17.77;;;8.02;;
70385;SDS011;63206;55.650;37.500;2023-04-03T17:04:26;16.65;;;8.35;;
70385;SDS011;63206;55.650;37.500;2023-04-03T17:07:04;16.75;;;8.63;;
70385;SDS011;63206;55.650;37.500;2023-04-03T17:09:39;18.63;;;8.68;;
70385;SDS011;63206;55.650;37.500;2023-04-03T17:12:17;17.45;;;8.55;;
70385;SDS011;63206;55.650;37.500;2023-04-03T17:15:03;18.80;;;8.43;;
70385;SDS011;63206;55.650;37.500;2023-04-03T17:17:34;19.92;;;8.45;;
70385;SDS011;63206;55.650;37.500;2023-04-03T17:20:21;20.17;;;9.48;;
70385;SDS011;63206;55.650;37.500;2023-04-03T17:22:55;17.95;;;8.50;;
70385;SDS011;63206;55.650;37.500;2023-04-03T17:25:33;17.05;;;8.50;;
70385;SDS011;63206;55.650;37.500;2023-04-03T17:28:04;19.75;;;9.68;;